Time;durP1;ratioP1;P1;durP2;ratioP2;P2;SDS_P1;SDS_P2;PMS_P1;PMS_P2;Temp;Humidity;BMP_temperature;BMP_pressure;BME280_temperature;BME280_humidity;BME280_pressure;Samples;Min_cycle;Max_cycle;Signal;HPM_P1;HPM_P2
2021/09/28 00:01:46;;;;;;;;;;;15.10;99.90;;;;;;5014884;28;20344;-61
2021/09/28 00:04:11;;;;;;;;;;;15.00;99.90;;;;;;5005117;28;19996;-60
2021/09/28 00:06:37;;;;;;;;;;;15.00;99.90;;;;;;5007626;28;19909;-61
2021/09/28 00:09:03;;;;;;;;;;;15.00;99.90;;;;;;5013650;28;19964;-60
2021/09/28 00:11:28;;;;;;;;;;;15.00;99.90;;;;;;5008455;28;20363;-61
2021/09/28 00:13:54;;;;;;;;;;;15.00;99.90;;;;;;5024097;28;20031;-60
2021/09/28 00:16:19;;;;;;;;;;;15.00;99.90;;;;;;5006468;28;20000;-61
2021/09/28 00:18:45;;;;;;;;;;;14.90;99.90;;;;;;5010492;28;20352;-61
2021/09/28 00:21:10;;;;;;;;;;;14.90;99.90;;;;;;5023207;28;19971;-60
2021/09/28 00:23:36;;;;;;;;;;;14.90;99.90;;;;;;5022564;28;19905;-61
2021/09/28 00:26:01;;;;;;;;;;;15.00;99.90;;;;;;5049800;22;20448;-64
2021/09/28 00:28:28;;;;;;;;;;;15.00;99.90;;;;;;5030540;28;20336;-64
2021/09/28 00:30:54;;;;;;;;;;;14.90;99.90;;;;;;5029310;28;20007;-65
2021/09/28 00:33:20;;;;;;;;;;;14.90;99.90;;;;;;5027945;28;20518;-65
2021/09/28 00:35:45;;;;;;;;;;;14.90;99.90;;;;;;5029928;28;19936;-65
2021/09/28 00:38:11;;;;;;;;;;;14.90;99.90;;;;;;5029516;28;20310;-65
2021/09/28 00:40:36;;;;;;;;;;;14.90;99.90;;;;;;5028261;28;20262;-65
2021/09/28 00:43:02;;;;;;;;;;;14.90;99.90;;;;;;5026732;28;19928;-65
2021/09/28 00:45:27;;;;;;;;;;;14.90;99.90;;;;;;5029415;28;20304;-65
2021/09/28 00:47:53;;;;;;;;;;;14.90;99.90;;;;;;5029108;28;20100;-65
2021/09/28 00:50:18;;;;;;;;;;;14.90;99.90;;;;;;5027298;28;19935;-65
2021/09/28 00:52:46;;;;;;;;;;;14.80;99.90;;;;;;5025928;28;19920;-65
2021/09/28 00:55:13;;;;;;;;;;;14.90;99.90;;;;;;5029835;28;19920;-65
2021/09/28 00:57:39;;;;;;;;;;;14.80;99.90;;;;;;5029315;28;19905;-65
2021/09/28 01:00:07;;;;;;;;;;;14.80;99.90;;;;;;5029747;28;19916;-65
2021/09/28 01:02:33;;;;;;;;;;;14.80;99.90;;;;;;5026794;28;19913;-64
2021/09/28 01:05:02;;;;;;;;;;;14.80;99.90;;;;;;5029472;28;19909;-65
2021/09/28 01:07:28;;;;;;;;;;;14.80;99.90;;;;;;5025299;28;19917;-64
2021/09/28 01:09:53;;;;;;;;;;;14.80;99.90;;;;;;5028710;28;19924;-65
2021/09/28 01:12:19;;;;;;;;;;;14.80;99.90;;;;;;5027342;28;19920;-65
2021/09/28 01:14:44;;;;;;;;;;;14.80;99.90;;;;;;5027963;28;19912;-65
2021/09/28 01:17:18;;;;;;;;;;;14.80;99.90;;;;;;5027538;28;19927;-65
2021/09/28 01:19:43;;;;;;;;;;;14.80;99.90;;;;;;5027798;28;20195;-65
2021/09/28 01:22:13;;;;;;;;;;;14.80;99.90;;;;;;5026990;28;20272;-65
2021/09/28 01:24:40;;;;;;;;;;;14.80;99.90;;;;;;5027615;28;19997;-65
2021/09/28 01:27:06;;;;;;;;;;;14.80;99.90;;;;;;5029089;28;19948;-65
2021/09/28 01:29:31;;;;;;;;;;;14.80;99.90;;;;;;5029049;28;20357;-65
2021/09/28 01:31:57;;;;;;;;;;;14.80;99.90;;;;;;5028032;28;19913;-65
2021/09/28 01:34:22;;;;;;;;;;;14.80;99.90;;;;;;5028366;28;19919;-65
2021/09/28 01:36:48;;;;;;;;;;;14.80;99.90;;;;;;5027923;28;19924;-65
2021/09/28 01:39:14;;;;;;;;;;;14.80;99.90;;;;;;5027160;28;19916;-65
2021/09/28 01:41:39;;;;;;;;;;;14.70;99.90;;;;;;5026390;28;19916;-65
2021/09/28 01:44:09;;;;;;;;;;;14.70;99.90;;;;;;5027699;28;19905;-65
2021/09/28 01:46:38;;;;;;;;;;;14.70;99.90;;;;;;5028803;28;19913;-65
2021/09/28 01:49:04;;;;;;;;;;;14.70;99.90;;;;;;5027438;28;19986;-65
2021/09/28 01:51:29;;;;;;;;;;;14.70;99.90;;;;;;5026684;28;19913;-65
2021/09/28 01:53:55;;;;;;;;;;;14.70;99.90;;;;;;5028184;28;20247;-65
2021/09/28 01:56:22;;;;;;;;;;;14.70;99.90;;;;;;5026576;28;19909;-64
2021/09/28 01:58:48;;;;;;;;;;;14.60;99.90;;;;;;5026999;28;19905;-65
2021/09/28 02:01:13;;;;;;;;;;;14.60;99.90;;;;;;5027431;28;20011;-65
2021/09/28 02:03:39;;;;;;;;;;;14.50;99.90;;;;;;5026274;28;20000;-66
2021/09/28 02:06:04;;;;;;;;;;;14.50;99.90;;;;;;5027453;28;19916;-65
2021/09/28 02:08:30;;;;;;;;;;;14.50;99.90;;;;;;5028272;28;19909;-65
2021/09/28 02:10:55;;;;;;;;;;;14.50;99.90;;;;;;5027619;28;19909;-68
2021/09/28 02:13:20;;;;;;;;;;;14.40;99.90;;;;;;5025194;28;19978;-65
2021/09/28 02:15:46;;;;;;;;;;;14.40;99.90;;;;;;5027326;28;19992;-64
2021/09/28 02:18:11;;;;;;;;;;;14.40;99.90;;;;;;5028182;28;20095;-65
2021/09/28 02:20:37;;;;;;;;;;;14.40;99.90;;;;;;5019111;28;19984;-65
2021/09/28 02:23:02;;;;;;;;;;;14.30;99.90;;;;;;5025354;28;20369;-65
2021/09/28 02:25:28;;;;;;;;;;;14.30;99.90;;;;;;5026783;28;20011;-65
2021/09/28 02:27:53;;;;;;;;;;;14.30;99.90;;;;;;5024708;28;19912;-65
2021/09/28 02:30:19;;;;;;;;;;;14.30;99.90;;;;;;5025233;28;20060;-65
2021/09/28 02:32:44;;;;;;;;;;;14.30;99.90;;;;;;5026010;28;20000;-65
2021/09/28 02:35:10;;;;;;;;;;;14.30;99.90;;;;;;5026164;28;19909;-65
2021/09/28 02:37:35;;;;;;;;;;;14.30;99.90;;;;;;5027356;28;19905;-65
2021/09/28 02:40:02;;;;;;;;;;;14.20;99.90;;;;;;5026401;28;20058;-65
2021/09/28 02:42:27;;;;;;;;;;;14.20;99.90;;;;;;5024695;28;20439;-65
2021/09/28 02:44:55;;;;;;;;;;;14.20;99.90;;;;;;5024230;28;20050;-65
2021/09/28 02:47:21;;;;;;;;;;;14.10;99.90;;;;;;5024973;28;19905;-65
2021/09/28 02:49:47;;;;;;;;;;;14.10;99.90;;;;;;5025197;28;19909;-65
2021/09/28 02:52:12;;;;;;;;;;;14.10;99.90;;;;;;5026580;28;20179;-65
2021/09/28 02:54:38;;;;;;;;;;;14.10;99.90;;;;;;5025776;28;20301;-65
2021/09/28 02:57:03;;;;;;;;;;;14.10;99.90;;;;;;5027273;28;19906;-65
2021/09/28 02:59:29;;;;;;;;;;;14.10;99.90;;;;;;5027409;28;20005;-65
2021/09/28 03:01:54;;;;;;;;;;;14.00;99.90;;;;;;5023389;28;20381;-65
2021/09/28 03:04:20;;;;;;;;;;;14.00;99.90;;;;;;5025362;28;19917;-65
2021/09/28 03:06:45;;;;;;;;;;;14.00;99.90;;;;;;5027534;28;19912;-65
2021/09/28 03:09:11;;;;;;;;;;;14.00;99.90;;;;;;5027609;28;19909;-64
2021/09/28 03:11:37;;;;;;;;;;;14.00;99.90;;;;;;5025904;28;19909;-65
2021/09/28 03:14:02;;;;;;;;;;;14.00;99.90;;;;;;5027577;28;19909;-64
2021/09/28 03:16:27;;;;;;;;;;;13.90;99.90;;;;;;5027308;28;20324;-65
2021/09/28 03:18:53;;;;;;;;;;;13.90;99.90;;;;;;5024056;28;19913;-65
2021/09/28 03:21:18;;;;;;;;;;;13.90;99.90;;;;;;5021351;28;19944;-65
2021/09/28 03:23:44;;;;;;;;;;;13.90;99.90;;;;;;5024746;28;19912;-65
2021/09/28 03:26:09;;;;;;;;;;;13.90;99.90;;;;;;5026080;28;19944;-65
2021/09/28 03:28:35;;;;;;;;;;;13.90;99.90;;;;;;5026634;28;20075;-66
2021/09/28 03:31:01;;;;;;;;;;;13.90;99.90;;;;;;5024290;28;20190;-65
2021/09/28 03:33:26;;;;;;;;;;;13.80;99.90;;;;;;5026530;28;19913;-65
2021/09/28 03:35:52;;;;;;;;;;;13.80;99.90;;;;;;5023964;28;19917;-65
2021/09/28 03:38:18;;;;;;;;;;;13.80;99.90;;;;;;5024181;28;19913;-65
2021/09/28 03:40:43;;;;;;;;;;;13.80;99.90;;;;;;5027214;28;19924;-65
2021/09/28 03:43:08;;;;;;;;;;;13.80;99.90;;;;;;5027853;28;19917;-65
2021/09/28 03:45:35;;;;;;;;;;;13.80;99.90;;;;;;5026638;28;19917;-65
2021/09/28 03:48:00;;;;;;;;;;;13.80;99.90;;;;;;5025210;28;20460;-65
2021/09/28 03:50:27;;;;;;;;;;;13.70;99.90;;;;;;5023725;28;19913;-65
2021/09/28 03:52:53;;;;;;;;;;;13.70;99.90;;;;;;5024215;28;19913;-65
2021/09/28 03:55:21;;;;;;;;;;;13.70;99.90;;;;;;5027222;28;19924;-65
2021/09/28 03:57:47;;;;;;;;;;;13.70;99.90;;;;;;5025434;28;19913;-65
2021/09/28 04:00:13;;;;;;;;;;;13.70;99.90;;;;;;5028126;28;19919;-65
2021/09/28 04:02:38;;;;;;;;;;;13.60;99.90;;;;;;5023543;28;19996;-64
2021/09/28 04:05:04;;;;;;;;;;;13.60;99.90;;;;;;5026465;28;19912;-64
2021/09/28 04:07:29;;;;;;;;;;;13.50;99.90;;;;;;5028747;28;20373;-64
2021/09/28 04:09:55;;;;;;;;;;;13.60;99.90;;;;;;5030501;28;19934;-64
2021/09/28 04:12:23;;;;;;;;;;;13.50;99.90;;;;;;5023776;28;20293;-65
2021/09/28 04:14:48;;;;;;;;;;;13.50;99.90;;;;;;5027053;28;19943;-65
2021/09/28 04:17:14;;;;;;;;;;;13.50;99.90;;;;;;5025592;28;19917;-64
2021/09/28 04:19:39;;;;;;;;;;;13.50;99.90;;;;;;5024354;28;19936;-65
2021/09/28 04:22:05;;;;;;;;;;;13.50;99.90;;;;;;5025159;28;19917;-65
2021/09/28 04:24:30;;;;;;;;;;;13.60;99.90;;;;;;5026259;28;19931;-65
2021/09/28 04:26:56;;;;;;;;;;;13.60;99.90;;;;;;5022885;28;19916;-65
2021/09/28 04:29:21;;;;;;;;;;;13.50;99.90;;;;;;5028296;28;19917;-66
2021/09/28 04:31:47;;;;;;;;;;;13.50;99.90;;;;;;5026722;28;19909;-65
2021/09/28 04:34:12;;;;;;;;;;;13.50;99.90;;;;;;5025763;28;19923;-65
2021/09/28 04:36:37;;;;;;;;;;;13.40;99.90;;;;;;5024096;28;20409;-66
2021/09/28 04:39:03;;;;;;;;;;;13.40;99.90;;;;;;5026842;28;20413;-66
2021/09/28 04:41:28;;;;;;;;;;;13.40;99.90;;;;;;5024996;28;19917;-67
2021/09/28 04:43:54;;;;;;;;;;;13.40;99.90;;;;;;5026070;28;20004;-69
2021/09/28 04:46:19;;;;;;;;;;;13.40;99.90;;;;;;5028598;28;19909;-68
2021/09/28 04:48:45;;;;;;;;;;;13.60;99.90;;;;;;5028283;28;19982;-67
2021/09/28 04:51:10;;;;;;;;;;;13.90;99.90;;;;;;5027888;28;19913;-65
2021/09/28 04:53:36;;;;;;;;;;;14.10;99.90;;;;;;5027288;28;19974;-65
2021/09/28 04:56:01;;;;;;;;;;;14.00;99.90;;;;;;5030441;28;19912;-65
2021/09/28 04:58:27;;;;;;;;;;;13.90;99.90;;;;;;5030115;28;20362;-65
2021/09/28 05:00:52;;;;;;;;;;;13.80;99.90;;;;;;5029346;28;20404;-66
2021/09/28 05:03:18;;;;;;;;;;;13.60;99.90;;;;;;5029593;28;20047;-66
2021/09/28 05:05:44;;;;;;;;;;;13.60;99.90;;;;;;5029521;28;19905;-66
2021/09/28 05:08:09;;;;;;;;;;;13.50;99.90;;;;;;5030240;28;19995;-66
2021/09/28 05:10:35;;;;;;;;;;;13.40;99.90;;;;;;5026843;28;19917;-65
2021/09/28 05:13:00;;;;;;;;;;;13.40;99.90;;;;;;5027741;28;19913;-65
2021/09/28 05:15:26;;;;;;;;;;;13.40;99.90;;;;;;5030365;28;19913;-65
2021/09/28 05:17:51;;;;;;;;;;;13.30;99.90;;;;;;5025023;28;19919;-65
2021/09/28 05:20:17;;;;;;;;;;;13.30;99.90;;;;;;5029127;28;20286;-65
2021/09/28 05:22:42;;;;;;;;;;;13.30;99.90;;;;;;5027592;28;19916;-65
2021/09/28 05:25:08;;;;;;;;;;;13.30;99.90;;;;;;5028646;28;19905;-65
2021/09/28 05:27:33;;;;;;;;;;;13.20;99.90;;;;;;5029581;28;19921;-66
2021/09/28 05:29:59;;;;;;;;;;;13.20;99.90;;;;;;5028745;28;19909;-66
2021/09/28 05:32:24;;;;;;;;;;;13.30;99.90;;;;;;5026131;28;19924;-65
2021/09/28 05:34:50;;;;;;;;;;;13.20;99.90;;;;;;5021080;28;19913;-65
2021/09/28 05:37:15;;;;;;;;;;;13.20;99.90;;;;;;5027833;28;19909;-65
2021/09/28 05:39:41;;;;;;;;;;;13.20;99.90;;;;;;5028203;28;19905;-65
2021/09/28 05:42:06;;;;;;;;;;;13.20;99.90;;;;;;5027856;28;19917;-65
2021/09/28 05:44:32;;;;;;;;;;;13.20;99.90;;;;;;5028613;28;19932;-65
2021/09/28 05:46:57;;;;;;;;;;;13.30;99.90;;;;;;5027670;28;19935;-65
2021/09/28 05:49:23;;;;;;;;;;;13.30;99.90;;;;;;5027009;28;19909;-65
2021/09/28 05:51:54;;;;;;;;;;;13.30;99.90;;;;;;5027825;28;19909;-65
2021/09/28 05:54:21;;;;;;;;;;;13.20;99.90;;;;;;5028604;28;19956;-65
2021/09/28 05:56:47;;;;;;;;;;;13.20;99.90;;;;;;5019319;28;19908;-65
2021/09/28 05:59:13;;;;;;;;;;;13.20;99.90;;;;;;5028567;28;19962;-67
2021/09/28 06:01:38;;;;;;;;;;;13.20;99.90;;;;;;5026540;28;19924;-65
2021/09/28 06:04:04;;;;;;;;;;;13.20;99.90;;;;;;5026711;28;19917;-65
2021/09/28 06:06:30;;;;;;;;;;;13.30;99.90;;;;;;5027916;28;19909;-66
2021/09/28 06:08:56;;;;;;;;;;;13.30;99.90;;;;;;5028413;28;19904;-65
2021/09/28 06:11:22;;;;;;;;;;;13.30;99.90;;;;;;5028022;28;20292;-65
2021/09/28 06:13:47;;;;;;;;;;;13.30;99.90;;;;;;5029493;28;19908;-65
2021/09/28 06:16:13;;;;;;;;;;;13.30;99.90;;;;;;5028314;28;19916;-66
2021/09/28 06:18:38;;;;;;;;;;;13.30;99.90;;;;;;5026773;28;20380;-66
2021/09/28 06:21:04;;;;;;;;;;;13.30;99.90;;;;;;5024515;28;20364;-66
2021/09/28 06:23:29;;;;;;;;;;;13.20;99.90;;;;;;5027426;28;19905;-65
2021/09/28 06:28:31;;;;;;;;;;;13.20;99.90;;;;;;5005594;28;19925;-61
2021/09/28 06:30:56;;;;;;;;;;;13.20;99.90;;;;;;5004539;28;19920;-62
2021/09/28 06:33:22;;;;;;;;;;;13.20;99.90;;;;;;4999406;28;19909;-61
2021/09/28 06:35:47;;;;;;;;;;;13.20;99.90;;;;;;4985794;28;19952;-61
2021/09/28 06:38:13;;;;;;;;;;;13.20;99.90;;;;;;4991595;28;20341;-61
2021/09/28 06:40:38;;;;;;;;;;;13.20;99.90;;;;;;4991935;28;19941;-63
2021/09/28 06:43:04;;;;;;;;;;;13.20;99.90;;;;;;4991870;28;19914;-61
2021/09/28 06:45:29;;;;;;;;;;;13.30;99.90;;;;;;4986470;28;19910;-60
2021/09/28 06:47:55;;;;;;;;;;;13.30;99.90;;;;;;4987338;28;19910;-61
2021/09/28 06:50:20;;;;;;;;;;;13.30;99.90;;;;;;4989046;28;19910;-61
2021/09/28 06:52:46;;;;;;;;;;;13.30;99.90;;;;;;4983421;28;20336;-60
2021/09/28 06:55:11;;;;;;;;;;;13.40;99.90;;;;;;4987660;28;19953;-62
2021/09/28 06:57:37;;;;;;;;;;;13.40;99.90;;;;;;4987279;28;20438;-62
2021/09/28 07:00:06;;;;;;;;;;;13.40;99.90;;;;;;4986395;28;19921;-61
2021/09/28 07:02:31;;;;;;;;;;;13.40;99.90;;;;;;4999237;28;19920;-62
2021/09/28 07:04:56;;;;;;;;;;;13.50;99.90;;;;;;5004269;28;19909;-61
2021/09/28 07:07:27;;;;;;;;;;;13.50;99.90;;;;;;4993303;28;20315;-61
2021/09/28 07:09:52;;;;;;;;;;;13.50;99.90;;;;;;4992573;28;20526;-62
2021/09/28 07:12:18;;;;;;;;;;;13.60;99.90;;;;;;4997866;28;20004;-62
2021/09/28 07:14:43;;;;;;;;;;;13.60;99.90;;;;;;5002042;28;19964;-62
2021/09/28 07:17:09;;;;;;;;;;;13.60;99.90;;;;;;4997086;28;20383;-62
2021/09/28 07:19:34;;;;;;;;;;;13.60;99.90;;;;;;4993972;28;20383;-61
2021/09/28 07:22:00;;;;;;;;;;;13.70;99.90;;;;;;4993612;28;20347;-61
2021/09/28 07:24:25;;;;;;;;;;;13.70;99.90;;;;;;4986711;28;19913;-61
2021/09/28 07:26:51;;;;;;;;;;;13.70;99.90;;;;;;4987489;28;19920;-61
2021/09/28 07:29:16;;;;;;;;;;;13.80;99.90;;;;;;4994387;28;19992;-61
2021/09/28 07:31:42;;;;;;;;;;;13.80;99.90;;;;;;4990073;28;20374;-62
2021/09/28 07:34:09;;;;;;;;;;;13.80;99.90;;;;;;4987449;28;20447;-62
2021/09/28 07:36:34;;;;;;;;;;;13.80;99.90;;;;;;5001720;28;19996;-62
2021/09/28 07:39:01;;;;;;;;;;;13.80;99.90;;;;;;4994289;28;20000;-61
2021/09/28 07:41:27;;;;;;;;;;;13.90;99.90;;;;;;4995296;28;19921;-61
2021/09/28 07:43:52;;;;;;;;;;;13.90;99.90;;;;;;4986794;28;19910;-62
2021/09/28 07:46:17;;;;;;;;;;;14.00;99.90;;;;;;5001764;28;19912;-61
2021/09/28 07:48:45;;;;;;;;;;;14.00;99.90;;;;;;4987502;28;20360;-62
2021/09/28 07:51:11;;;;;;;;;;;14.10;99.90;;;;;;4987702;28;19917;-63
2021/09/28 07:53:36;;;;;;;;;;;14.10;99.90;;;;;;4998223;28;20016;-62
2021/09/28 07:56:02;;;;;;;;;;;14.20;99.90;;;;;;4990712;28;20675;-61
2021/09/28 07:58:28;;;;;;;;;;;14.20;99.90;;;;;;5003451;28;19906;-60
2021/09/28 08:00:53;;;;;;;;;;;14.30;99.90;;;;;;4984123;28;20327;-60
2021/09/28 08:03:20;;;;;;;;;;;14.30;99.90;;;;;;4992127;28;19960;-62
2021/09/28 08:05:47;;;;;;;;;;;14.40;99.90;;;;;;4987642;28;19910;-61
2021/09/28 08:08:12;;;;;;;;;;;14.40;99.90;;;;;;5002897;28;19917;-61
2021/09/28 08:10:38;;;;;;;;;;;14.50;99.90;;;;;;4987278;28;19909;-62
2021/09/28 08:13:05;;;;;;;;;;;14.50;99.90;;;;;;5006266;28;20019;-61
2021/09/28 08:15:32;;;;;;;;;;;14.60;99.90;;;;;;4997628;28;19905;-61
2021/09/28 08:17:57;;;;;;;;;;;14.60;99.90;;;;;;4987737;28;20032;-61
2021/09/28 08:20:23;;;;;;;;;;;14.70;99.90;;;;;;4988084;28;19988;-61
2021/09/28 08:22:48;;;;;;;;;;;14.80;99.90;;;;;;4987370;28;20019;-61
2021/09/28 08:25:17;;;;;;;;;;;14.90;99.90;;;;;;4993654;28;19948;-62
2021/09/28 08:30:27;;;;;;;;;;;14.90;99.90;;;;;;4991912;28;19920;-60
2021/09/28 08:32:52;;;;;;;;;;;15.00;99.90;;;;;;4990356;28;19913;-63
2021/09/28 08:35:18;;;;;;;;;;;15.00;99.90;;;;;;5001512;28;19906;-63
2021/09/28 08:37:43;;;;;;;;;;;15.10;99.80;;;;;;4996877;28;19912;-61
2021/09/28 08:40:10;;;;;;;;;;;15.10;99.80;;;;;;4991025;28;20324;-61
2021/09/28 08:42:36;;;;;;;;;;;15.20;99.70;;;;;;5004740;28;19963;-62
2021/09/28 08:45:01;;;;;;;;;;;15.20;99.90;;;;;;5008641;28;20390;-62
2021/09/28 08:47:43;;;;;;;;;;;15.30;99.60;;;;;;4991476;28;19960;-62
2021/09/28 08:50:14;;;;;;;;;;;15.30;99.20;;;;;;4989704;28;19935;-63
2021/09/28 08:52:41;;;;;;;;;;;15.30;99.40;;;;;;4990773;28;19920;-61
2021/09/28 08:55:07;;;;;;;;;;;15.40;99.40;;;;;;4995612;28;20256;-62
2021/09/28 08:57:32;;;;;;;;;;;15.40;99.50;;;;;;4991783;28;20013;-61
2021/09/28 08:59:59;;;;;;;;;;;15.50;99.50;;;;;;5003248;28;20276;-61
2021/09/28 09:02:41;;;;;;;;;;;15.60;98.60;;;;;;5002554;28;19963;-62
2021/09/28 09:05:11;;;;;;;;;;;15.50;98.70;;;;;;5009001;28;19912;-61
2021/09/28 09:07:37;;;;;;;;;;;15.50;98.80;;;;;;5010156;28;19985;-62
2021/09/28 09:10:02;;;;;;;;;;;15.50;98.90;;;;;;5007599;28;19913;-61
2021/09/28 09:12:29;;;;;;;;;;;15.60;98.90;;;;;;4988664;28;19925;-61
2021/09/28 09:15:14;;;;;;;;;;;15.60;98.10;;;;;;4990027;28;19933;-62
2021/09/28 09:17:40;;;;;;;;;;;15.70;98.50;;;;;;4990991;28;19984;-61
2021/09/28 09:20:19;;;;;;;;;;;15.80;97.90;;;;;;4994072;28;20384;-61
2021/09/28 09:22:45;;;;;;;;;;;15.80;97.30;;;;;;4988672;28;20368;-62
2021/09/28 09:25:17;;;;;;;;;;;15.80;97.80;;;;;;5000962;28;19914;-61
2021/09/28 09:27:43;;;;;;;;;;;15.90;98.20;;;;;;4991486;28;20017;-62
2021/09/28 09:30:15;;;;;;;;;;;16.10;98.10;;;;;;4991817;28;20002;-61
2021/09/28 09:33:00;;;;;;;;;;;16.20;97.90;;;;;;4998424;28;20530;-61
2021/09/28 09:35:28;;;;;;;;;;;16.30;98.00;;;;;;4994933;28;19912;-64
2021/09/28 09:38:07;;;;;;;;;;;16.40;98.00;;;;;;4994163;28;19941;-62
2021/09/28 09:40:33;;;;;;;;;;;16.50;97.10;;;;;;4987491;28;19953;-62
2021/09/28 09:42:59;;;;;;;;;;;16.50;96.70;;;;;;5004103;28;20231;-61
2021/09/28 09:45:25;;;;;;;;;;;16.50;96.00;;;;;;5008069;28;19966;-62
2021/09/28 09:47:50;;;;;;;;;;;16.40;96.20;;;;;;5003456;28;19909;-62
2021/09/28 09:50:19;;;;;;;;;;;16.40;96.50;;;;;;5007623;28;19968;-62
2021/09/28 09:52:57;;;;;;;;;;;16.50;96.90;;;;;;4994880;28;19921;-61
2021/09/28 09:55:26;;;;;;;;;;;16.60;97.00;;;;;;4994403;28;20454;-60
2021/09/28 09:57:52;;;;;;;;;;;16.80;96.90;;;;;;4996441;28;19917;-61
2021/09/28 10:00:18;;;;;;;;;;;17.00;96.30;;;;;;4989746;28;19912;-62
2021/09/28 10:02:45;;;;;;;;;;;17.20;96.30;;;;;;4991272;28;20268;-62
2021/09/28 10:05:10;;;;;;;;;;;17.30;94.80;;;;;;4989917;28;20427;-62
2021/09/28 10:07:35;;;;;;;;;;;17.30;95.00;;;;;;4989533;28;19916;-61
2021/09/28 10:10:01;;;;;;;;;;;17.30;95.30;;;;;;4996492;28;19940;-62
2021/09/28 10:12:34;;;;;;;;;;;17.40;94.90;;;;;;4991718;28;20385;-62
2021/09/28 10:15:21;;;;;;;;;;;17.50;95.30;;;;;;5002913;28;19920;-62
2021/09/28 10:17:47;;;;;;;;;;;17.60;95.20;;;;;;4988787;28;19910;-62
2021/09/28 10:20:21;;;;;;;;;;;17.70;94.60;;;;;;4991712;28;19961;-62
2021/09/28 10:22:49;;;;;;;;;;;17.60;94.50;;;;;;4989036;28;20486;-62
2021/09/28 10:25:24;;;;;;;;;;;17.60;94.50;;;;;;4990288;28;20055;-62
2021/09/28 10:27:50;;;;;;;;;;;17.60;94.90;;;;;;4987746;28;19968;-62
2021/09/28 10:30:39;;;;;;;;;;;17.60;94.80;;;;;;4988620;28;19967;-62
2021/09/28 10:33:10;;;;;;;;;;;17.70;94.50;;;;;;4983775;28;19964;-61
2021/09/28 10:35:51;;;;;;;;;;;17.70;94.30;;;;;;5007258;28;19962;-62
2021/09/28 10:38:17;;;;;;;;;;;17.70;94.30;;;;;;5001862;28;19994;-62
2021/09/28 10:40:48;;;;;;;;;;;17.60;94.40;;;;;;5007825;28;20410;-61
2021/09/28 10:43:25;;;;;;;;;;;17.60;94.60;;;;;;5002024;28;19960;-61
2021/09/28 10:45:51;;;;;;;;;;;17.70;94.30;;;;;;4989924;28;19906;-61
2021/09/28 10:48:28;;;;;;;;;;;17.60;94.30;;;;;;4994336;28;20031;-63
2021/09/28 10:51:12;;;;;;;;;;;17.70;94.40;;;;;;4987551;28;20587;-62
2021/09/28 10:53:42;;;;;;;;;;;17.70;94.20;;;;;;4993674;28;19905;-61
2021/09/28 10:56:09;;;;;;;;;;;17.90;93.90;;;;;;4989119;28;19910;-62
2021/09/28 10:58:53;;;;;;;;;;;17.90;93.00;;;;;;4988369;28;19914;-60
2021/09/28 11:01:19;;;;;;;;;;;17.90;92.80;;;;;;4991212;28;19920;-62
2021/09/28 11:03:45;;;;;;;;;;;17.90;93.20;;;;;;4989269;28;19913;-62
2021/09/28 11:06:10;;;;;;;;;;;18.00;92.50;;;;;;4988117;28;19913;-63
2021/09/28 11:08:36;;;;;;;;;;;18.00;92.30;;;;;;4988423;28;20014;-63
2021/09/28 11:11:03;;;;;;;;;;;18.10;91.90;;;;;;4989241;28;19909;-63
2021/09/28 11:13:29;;;;;;;;;;;18.20;91.90;;;;;;4998084;28;20488;-63
2021/09/28 11:15:59;;;;;;;;;;;18.30;92.10;;;;;;4999849;28;19914;-62
2021/09/28 11:18:24;;;;;;;;;;;18.40;92.00;;;;;;4988062;28;19910;-63
2021/09/28 11:20:50;;;;;;;;;;;18.50;92.10;;;;;;4986047;28;19920;-63
2021/09/28 11:23:15;;;;;;;;;;;18.70;92.40;;;;;;5000344;28;19909;-63
2021/09/28 11:25:52;;;;;;;;;;;18.70;90.80;;;;;;4988214;28;19909;-63
2021/09/28 11:28:18;;;;;;;;;;;18.60;90.80;;;;;;4987977;28;20374;-63
2021/09/28 11:30:51;;;;;;;;;;;18.60;91.10;;;;;;4986292;28;19905;-62
2021/09/28 11:33:16;;;;;;;;;;;18.60;90.90;;;;;;4987099;28;19917;-63
2021/09/28 11:35:54;;;;;;;;;;;18.40;91.10;;;;;;4986571;28;19913;-63
2021/09/28 11:38:25;;;;;;;;;;;18.40;91.30;;;;;;4988098;28;20237;-62
2021/09/28 11:40:56;;;;;;;;;;;18.30;91.10;;;;;;4986953;28;19916;-63
2021/09/28 11:43:24;;;;;;;;;;;18.20;90.90;;;;;;4989726;28;19913;-63
2021/09/28 11:46:00;;;;;;;;;;;18.10;91.60;;;;;;4987294;28;20020;-65
2021/09/28 11:48:27;;;;;;;;;;;18.10;91.90;;;;;;4987599;28;19919;-63
2021/09/28 11:50:52;;;;;;;;;;;18.10;92.00;;;;;;4990893;28;19910;-62
2021/09/28 11:53:18;;;;;;;;;;;18.00;91.30;;;;;;4987225;28;20014;-63
2021/09/28 11:55:43;;;;;;;;;;;18.00;91.70;;;;;;4987718;28;20370;-63
2021/09/28 11:58:09;;;;;;;;;;;17.90;90.80;;;;;;4987366;28;19928;-62
2021/09/28 12:00:34;;;;;;;;;;;17.80;91.10;;;;;;4988194;28;20132;-63
2021/09/28 12:03:07;;;;;;;;;;;17.80;90.50;;;;;;5000142;28;19918;-62
2021/09/28 12:08:20;;;;;;;;;;;17.70;90.90;;;;;;4993894;28;19909;-62
2021/09/28 12:10:46;;;;;;;;;;;17.60;91.00;;;;;;4997941;28;19931;-63
2021/09/28 12:13:30;;;;;;;;;;;17.60;91.10;;;;;;5009455;28;19921;-63
2021/09/28 12:16:25;;;;;;;;;;;17.60;91.10;;;;;;4990930;28;19964;-63
2021/09/28 12:19:04;;;;;;;;;;;17.60;90.90;;;;;;4985673;28;19984;-62
2021/09/28 12:21:29;;;;;;;;;;;17.60;91.00;;;;;;5004272;28;19917;-63
2021/09/28 12:24:13;;;;;;;;;;;17.70;91.10;;;;;;5005390;28;20284;-63
2021/09/28 12:26:39;;;;;;;;;;;17.80;91.20;;;;;;5038078;22;21217;-67
2021/09/28 12:29:21;;;;;;;;;;;17.90;91.20;;;;;;5026839;28;20022;-67
2021/09/28 12:31:47;;;;;;;;;;;17.90;90.90;;;;;;5029182;28;19913;-67
2021/09/28 12:34:12;;;;;;;;;;;18.00;91.30;;;;;;5030155;28;19909;-67
2021/09/28 12:36:38;;;;;;;;;;;18.10;91.00;;;;;;5030723;28;19920;-67
2021/09/28 12:39:14;;;;;;;;;;;18.20;90.50;;;;;;5030277;28;19908;-67
2021/09/28 12:41:59;;;;;;;;;;;18.20;90.80;;;;;;5029517;28;20000;-67
2021/09/28 12:44:25;;;;;;;;;;;18.20;90.60;;;;;;5030358;28;20230;-67
2021/09/28 12:46:51;;;;;;;;;;;18.20;90.40;;;;;;5029274;28;20407;-67
2021/09/28 12:49:26;;;;;;;;;;;18.20;90.70;;;;;;5029415;28;19912;-67
2021/09/28 12:51:52;;;;;;;;;;;18.30;90.50;;;;;;5029022;28;19987;-67
2021/09/28 12:54:19;;;;;;;;;;;18.30;87.50;;;;;;5030461;28;20518;-67
2021/09/28 12:56:44;;;;;;;;;;;18.20;89.30;;;;;;5021601;28;19909;-67
2021/09/28 12:59:10;;;;;;;;;;;18.30;90.20;;;;;;5029443;28;19909;-67
2021/09/28 13:01:42;;;;;;;;;;;18.30;90.20;;;;;;5028016;28;19999;-67
2021/09/28 13:04:10;;;;;;;;;;;18.40;90.30;;;;;;5042921;28;20377;-68
2021/09/28 13:06:38;;;;;;;;;;;18.40;89.90;;;;;;5020389;28;19959;-68
2021/09/28 13:09:03;;;;;;;;;;;18.40;90.30;;;;;;5029816;28;19908;-68
2021/09/28 13:11:29;;;;;;;;;;;18.50;90.30;;;;;;5029592;28;19913;-68
2021/09/28 13:13:54;;;;;;;;;;;18.50;90.10;;;;;;5029146;28;19924;-68
2021/09/28 13:16:20;;;;;;;;;;;18.50;89.40;;;;;;5029611;28;19916;-68
2021/09/28 13:18:46;;;;;;;;;;;18.50;87.00;;;;;;5026975;28;19956;-68
2021/09/28 13:21:11;;;;;;;;;;;18.40;88.20;;;;;;5028843;28;20507;-68
2021/09/28 13:23:37;;;;;;;;;;;18.50;88.60;;;;;;5029545;28;19912;-68
2021/09/28 13:26:02;;;;;;;;;;;18.50;88.80;;;;;;5029538;28;19905;-67
2021/09/28 13:28:27;;;;;;;;;;;18.70;89.50;;;;;;5029798;28;20304;-68
2021/09/28 13:30:53;;;;;;;;;;;18.80;89.60;;;;;;5028797;28;19975;-68
2021/09/28 13:33:18;;;;;;;;;;;18.80;88.40;;;;;;5028982;28;20095;-67
2021/09/28 13:35:44;;;;;;;;;;;18.90;87.60;;;;;;5028243;28;19944;-68
2021/09/28 13:38:09;;;;;;;;;;;18.80;87.90;;;;;;5029556;28;20024;-67
2021/09/28 13:40:36;;;;;;;;;;;18.80;87.90;;;;;;5029320;28;19909;-67
2021/09/28 13:43:01;;;;;;;;;;;18.80;88.00;;;;;;5028908;28;20019;-68
2021/09/28 13:45:27;;;;;;;;;;;18.70;85.30;;;;;;5044868;28;20787;-68
2021/09/28 13:47:52;;;;;;;;;;;18.70;86.50;;;;;;5028126;28;19963;-68
2021/09/28 13:50:17;;;;;;;;;;;18.70;87.20;;;;;;5027899;28;20377;-68
2021/09/28 13:52:43;;;;;;;;;;;18.70;85.10;;;;;;5028368;28;19917;-67
2021/09/28 13:55:09;;;;;;;;;;;18.60;86.10;;;;;;5028242;28;20548;-68
2021/09/28 13:57:34;;;;;;;;;;;18.60;87.30;;;;;;5043579;28;19906;-67
2021/09/28 14:00:00;;;;;;;;;;;18.70;87.80;;;;;;5029154;28;19916;-68
2021/09/28 14:02:25;;;;;;;;;;;18.70;86.70;;;;;;5026496;28;23037;-68
2021/09/28 14:04:51;;;;;;;;;;;18.60;86.70;;;;;;5028853;28;20273;-67
2021/09/28 14:07:16;;;;;;;;;;;18.60;87.10;;;;;;5028967;28;20456;-68
2021/09/28 14:09:42;;;;;;;;;;;18.70;87.20;;;;;;5028818;28;20389;-68
2021/09/28 14:12:08;;;;;;;;;;;18.70;87.50;;;;;;5027837;28;20023;-68
2021/09/28 14:14:34;;;;;;;;;;;18.70;87.60;;;;;;5029026;28;19913;-68
2021/09/28 14:16:59;;;;;;;;;;;18.80;87.50;;;;;;5027769;28;20024;-67
2021/09/28 14:19:25;;;;;;;;;;;18.90;87.60;;;;;;5028379;28;20345;-67
2021/09/28 14:21:50;;;;;;;;;;;18.80;85.60;;;;;;5027052;28;20058;-67
2021/09/28 14:24:16;;;;;;;;;;;18.80;86.30;;;;;;5027279;28;19909;-68